sensor_id;sensor_type;location;lat;lon;timestamp;P1;durP1;ratioP1;P2;durP2;ratioP2
11677;SDS011;5895;41.950;24.372;2023-05-19T00:00:06;4.68;;;3.60;;
11677;SDS011;5895;41.950;24.372;2023-05-19T00:02:35;5.88;;;4.22;;
11677;SDS011;5895;41.950;24.372;2023-05-19T00:05:03;4.20;;;3.80;;
11677;SDS011;5895;41.950;24.372;2023-05-19T00:07:31;3.90;;;3.53;;
11677;SDS011;5895;41.950;24.372;2023-05-19T00:10:02;4.40;;;3.97;;
11677;SDS011;5895;41.950;24.372;2023-05-19T00:12:30;4.55;;;3.67;;
11677;SDS011;5895;41.950;24.372;2023-05-19T00:14:57;4.28;;;3.88;;
11677;SDS011;5895;41.950;24.372;2023-05-19T00:17:26;5.28;;;4.22;;
11677;SDS011;5895;41.950;24.372;2023-05-19T00:19:54;5.50;;;4.50;;
11677;SDS011;5895;41.950;24.372;2023-05-19T00:22:21;4.82;;;4.32;;
11677;SDS011;5895;41.950;24.372;2023-05-19T00:24:48;6.25;;;4.78;;
11677;SDS011;5895;41.950;24.372;2023-05-19T00:27:15;5.60;;;5.00;;
11677;SDS011;5895;41.950;24.372;2023-05-19T00:29:42;5.05;;;4.60;;
11677;SDS011;5895;41.950;24.372;2023-05-19T00:32:09;6.15;;;4.50;;
11677;SDS011;5895;41.950;24.372;2023-05-19T00:34:38;5.00;;;4.50;;
11677;SDS011;5895;41.950;24.372;2023-05-19T00:37:05;5.63;;;5.03;;
11677;SDS011;5895;41.950;24.372;2023-05-19T00:39:32;5.18;;;4.68;;
11677;SDS011;5895;41.950;24.372;2023-05-19T00:41:59;6.95;;;4.68;;
11677;SDS011;5895;41.950;24.372;2023-05-19T00:44:26;5.13;;;4.68;;
11677;SDS011;5895;41.950;24.372;2023-05-19T00:46:54;8.20;;;5.07;;
11677;SDS011;5895;41.950;24.372;2023-05-19T00:49:21;5.75;;;4.85;;
11677;SDS011;5895;41.950;24.372;2023-05-19T00:51:49;5.32;;;4.75;;
11677;SDS011;5895;41.950;24.372;2023-05-19T00:54:17;7.10;;;5.35;;
11677;SDS011;5895;41.950;24.372;2023-05-19T00:56:45;5.65;;;5.05;;
11677;SDS011;5895;41.950;24.372;2023-05-19T00:59:14;5.50;;;5.00;;
11677;SDS011;5895;41.950;24.372;2023-05-19T01:01:41;5.40;;;4.85;;
11677;SDS011;5895;41.950;24.372;2023-05-19T01:04:09;5.60;;;5.10;;
11677;SDS011;5895;41.950;24.372;2023-05-19T01:06:41;6.68;;;5.32;;
11677;SDS011;5895;41.950;24.372;2023-05-19T01:09:09;5.70;;;5.13;;
11677;SDS011;5895;41.950;24.372;2023-05-19T01:11:36;6.65;;;5.82;;
11677;SDS011;5895;41.950;24.372;2023-05-19T01:14:03;6.35;;;5.50;;
11677;SDS011;5895;41.950;24.372;2023-05-19T01:16:32;6.32;;;5.57;;
11677;SDS011;5895;41.950;24.372;2023-05-19T01:19:07;7.45;;;5.50;;
11677;SDS011;5895;41.950;24.372;2023-05-19T01:31:15;9.57;;;5.75;;
11677;SDS011;5895;41.950;24.372;2023-05-19T01:33:48;6.63;;;5.97;;
11677;SDS011;5895;41.950;24.372;2023-05-19T01:36:17;8.90;;;6.15;;
11677;SDS011;5895;41.950;24.372;2023-05-19T01:38:48;8.20;;;6.70;;
11677;SDS011;5895;41.950;24.372;2023-05-19T01:41:17;6.95;;;6.25;;
11677;SDS011;5895;41.950;24.372;2023-05-19T01:43:46;7.22;;;6.43;;
11677;SDS011;5895;41.950;24.372;2023-05-19T01:46:16;8.02;;;6.35;;
11677;SDS011;5895;41.950;24.372;2023-05-19T01:48:44;7.13;;;6.03;;
11677;SDS011;5895;41.950;24.372;2023-05-19T01:51:12;6.13;;;5.63;;
11677;SDS011;5895;41.950;24.372;2023-05-19T01:53:39;6.68;;;6.07;;
11677;SDS011;5895;41.950;24.372;2023-05-19T01:56:06;8.95;;;6.18;;
11677;SDS011;5895;41.950;24.372;2023-05-19T01:58:36;7.60;;;5.53;;
11677;SDS011;5895;41.950;24.372;2023-05-19T02:01:12;6.07;;;5.47;;
11677;SDS011;5895;41.950;24.372;2023-05-19T02:03:52;6.80;;;6.10;;
11677;SDS011;5895;41.950;24.372;2023-05-19T02:06:32;7.35;;;5.90;;
11677;SDS011;5895;41.950;24.372;2023-05-19T02:09:06;6.72;;;6.13;;
11677;SDS011;5895;41.950;24.372;2023-05-19T02:11:39;11.15;;;6.38;;
11677;SDS011;5895;41.950;24.372;2023-05-19T02:14:12;6.00;;;5.40;;
11677;SDS011;5895;41.950;24.372;2023-05-19T02:16:47;7.68;;;6.22;;
11677;SDS011;5895;41.950;24.372;2023-05-19T02:19:21;6.35;;;5.85;;
11677;SDS011;5895;41.950;24.372;2023-05-19T02:21:50;6.45;;;5.65;;
11677;SDS011;5895;41.950;24.372;2023-05-19T02:24:17;6.05;;;5.55;;
11677;SDS011;5895;41.950;24.372;2023-05-19T02:26:47;8.40;;;6.63;;
11677;SDS011;5895;41.950;24.372;2023-05-19T02:29:14;6.95;;;6.07;;
11677;SDS011;5895;41.950;24.372;2023-05-19T02:31:41;6.93;;;6.28;;
11677;SDS011;5895;41.950;24.372;2023-05-19T02:34:10;8.85;;;6.15;;
11677;SDS011;5895;41.950;24.372;2023-05-19T02:36:38;7.85;;;6.53;;
11677;SDS011;5895;41.950;24.372;2023-05-19T02:39:07;7.47;;;6.72;;
11677;SDS011;5895;41.950;24.372;2023-05-19T02:41:35;7.40;;;6.70;;
11677;SDS011;5895;41.950;24.372;2023-05-19T02:44:02;6.97;;;6.22;;
11677;SDS011;5895;41.950;24.372;2023-05-19T02:46:30;7.38;;;6.68;;
11677;SDS011;5895;41.950;24.372;2023-05-19T02:48:57;7.25;;;6.55;;
11677;SDS011;5895;41.950;24.372;2023-05-19T02:51:26;8.50;;;6.63;;
11677;SDS011;5895;41.950;24.372;2023-05-19T02:53:53;8.18;;;7.47;;
11677;SDS011;5895;41.950;24.372;2023-05-19T02:56:20;7.68;;;6.82;;
11677;SDS011;5895;41.950;24.372;2023-05-19T02:58:47;7.95;;;7.15;;
11677;SDS011;5895;41.950;24.372;2023-05-19T03:01:14;8.95;;;7.65;;
11677;SDS011;5895;41.950;24.372;2023-05-19T03:03:41;9.63;;;8.73;;
11677;SDS011;5895;41.950;24.372;2023-05-19T03:06:08;12.15;;;9.77;;
11677;SDS011;5895;41.950;24.372;2023-05-19T03:08:37;9.88;;;8.43;;
11677;SDS011;5895;41.950;24.372;2023-05-19T03:11:04;8.85;;;7.95;;
11677;SDS011;5895;41.950;24.372;2023-05-19T03:13:31;8.75;;;7.50;;
11677;SDS011;5895;41.950;24.372;2023-05-19T03:15:59;8.80;;;7.90;;
11677;SDS011;5895;41.950;24.372;2023-05-19T03:18:26;10.25;;;8.60;;
11677;SDS011;5895;41.950;24.372;2023-05-19T03:20:53;9.02;;;8.18;;
11677;SDS011;5895;41.950;24.372;2023-05-19T03:23:20;8.48;;;7.65;;
11677;SDS011;5895;41.950;24.372;2023-05-19T03:25:49;8.85;;;8.05;;
11677;SDS011;5895;41.950;24.372;2023-05-19T03:28:18;9.63;;;8.07;;
11677;SDS011;5895;41.950;24.372;2023-05-19T03:30:46;8.65;;;7.63;;
11677;SDS011;5895;41.950;24.372;2023-05-19T03:33:14;9.13;;;8.23;;
11677;SDS011;5895;41.950;24.372;2023-05-19T03:35:41;9.00;;;8.20;;
11677;SDS011;5895;41.950;24.372;2023-05-19T03:38:08;10.43;;;8.32;;
11677;SDS011;5895;41.950;24.372;2023-05-19T03:40:35;8.57;;;7.80;;
11677;SDS011;5895;41.950;24.372;2023-05-19T03:43:04;9.18;;;8.27;;
11677;SDS011;5895;41.950;24.372;2023-05-19T03:45:32;8.73;;;7.93;;
11677;SDS011;5895;41.950;24.372;2023-05-19T03:47:59;11.63;;;8.68;;
11677;SDS011;5895;41.950;24.372;2023-05-19T03:50:26;8.90;;;8.07;;
11677;SDS011;5895;41.950;24.372;2023-05-19T03:52:53;10.45;;;9.23;;
11677;SDS011;5895;41.950;24.372;2023-05-19T03:55:20;10.07;;;9.07;;
11677;SDS011;5895;41.950;24.372;2023-05-19T03:57:47;12.80;;;9.18;;
11677;SDS011;5895;41.950;24.372;2023-05-19T04:00:16;10.48;;;8.60;;
11677;SDS011;5895;41.950;24.372;2023-05-19T04:02:44;10.75;;;9.75;;
11677;SDS011;5895;41.950;24.372;2023-05-19T04:05:11;12.43;;;11.10;;
11677;SDS011;5895;41.950;24.372;2023-05-19T04:07:38;19.15;;;13.20;;
11677;SDS011;5895;41.950;24.372;2023-05-19T04:10:06;42.17;;;30.33;;
11677;SDS011;5895;41.950;24.372;2023-05-19T04:12:34;26.85;;;20.83;;
11677;SDS011;5895;41.950;24.372;2023-05-19T04:15:01;48.17;;;35.90;;
11677;SDS011;5895;41.950;24.372;2023-05-19T04:17:29;30.80;;;24.70;;
11677;SDS011;5895;41.950;24.372;2023-05-19T04:19:56;20.13;;;16.33;;
11677;SDS011;5895;41.950;24.372;2023-05-19T04:22:24;19.05;;;14.60;;
11677;SDS011;5895;41.950;24.372;2023-05-19T04:24:51;13.75;;;12.40;;
11677;SDS011;5895;41.950;24.372;2023-05-19T04:27:19;13.75;;;12.35;;
11677;SDS011;5895;41.950;24.372;2023-05-19T04:29:46;13.63;;;12.23;;
11677;SDS011;5895;41.950;24.372;2023-05-19T04:32:13;13.73;;;11.75;;
11677;SDS011;5895;41.950;24.372;2023-05-19T04:34:43;10.93;;;9.82;;
11677;SDS011;5895;41.950;24.372;2023-05-19T04:37:11;10.75;;;9.75;;
11677;SDS011;5895;41.950;24.372;2023-05-19T04:39:38;11.25;;;10.15;;
11677;SDS011;5895;41.950;24.372;2023-05-19T04:42:07;11.57;;;10.38;;
11677;SDS011;5895;41.950;24.372;2023-05-19T04:44:35;11.73;;;10.52;;
11677;SDS011;5895;41.950;24.372;2023-05-19T04:47:04;11.82;;;9.90;;
11677;SDS011;5895;41.950;24.372;2023-05-19T04:49:33;13.70;;;10.90;;
11677;SDS011;5895;41.950;24.372;2023-05-19T04:52:05;13.15;;;11.85;;
11677;SDS011;5895;41.950;24.372;2023-05-19T04:54:35;13.63;;;12.32;;
11677;SDS011;5895;41.950;24.372;2023-05-19T04:57:02;14.05;;;12.85;;
11677;SDS011;5895;41.950;24.372;2023-05-19T04:59:29;13.30;;;11.95;;
11677;SDS011;5895;41.950;24.372;2023-05-19T05:01:56;15.50;;;11.85;;
11677;SDS011;5895;41.950;24.372;2023-05-19T05:04:24;13.07;;;11.77;;
11677;SDS011;5895;41.950;24.372;2023-05-19T05:06:51;11.90;;;10.45;;
11677;SDS011;5895;41.950;24.372;2023-05-19T05:09:19;14.82;;;13.10;;
11677;SDS011;5895;41.950;24.372;2023-05-19T05:11:47;12.57;;;11.35;;
11677;SDS011;5895;41.950;24.372;2023-05-19T05:14:15;11.77;;;10.68;;
11677;SDS011;5895;41.950;24.372;2023-05-19T05:16:43;12.13;;;10.93;;
11677;SDS011;5895;41.950;24.372;2023-05-19T05:19:11;11.25;;;10.18;;
11677;SDS011;5895;41.950;24.372;2023-05-19T05:21:39;11.43;;;10.40;;
11677;SDS011;5895;41.950;24.372;2023-05-19T05:24:07;13.10;;;10.07;;
11677;SDS011;5895;41.950;24.372;2023-05-19T05:26:37;11.77;;;10.65;;
11677;SDS011;5895;41.950;24.372;2023-05-19T05:29:05;11.95;;;10.82;;
11677;SDS011;5895;41.950;24.372;2023-05-19T05:31:35;11.38;;;10.27;;
11677;SDS011;5895;41.950;24.372;2023-05-19T05:34:02;11.40;;;10.30;;
11677;SDS011;5895;41.950;24.372;2023-05-19T05:36:29;12.18;;;11.02;;
11677;SDS011;5895;41.950;24.372;2023-05-19T05:38:59;12.68;;;11.48;;
11677;SDS011;5895;41.950;24.372;2023-05-19T05:41:26;10.73;;;9.63;;
11677;SDS011;5895;41.950;24.372;2023-05-19T05:44:00;12.32;;;9.65;;
11677;SDS011;5895;41.950;24.372;2023-05-19T05:46:28;11.43;;;10.32;;
11677;SDS011;5895;41.950;24.372;2023-05-19T05:48:56;12.27;;;10.98;;
11677;SDS011;5895;41.950;24.372;2023-05-19T05:51:23;11.05;;;9.85;;
11677;SDS011;5895;41.950;24.372;2023-05-19T05:53:52;10.57;;;9.48;;
11677;SDS011;5895;41.950;24.372;2023-05-19T05:56:20;14.82;;;12.38;;
11677;SDS011;5895;41.950;24.372;2023-05-19T05:58:48;15.38;;;13.20;;
11677;SDS011;5895;41.950;24.372;2023-05-19T06:01:17;11.23;;;10.02;;
11677;SDS011;5895;41.950;24.372;2023-05-19T06:03:45;11.52;;;10.52;;
11677;SDS011;5895;41.950;24.372;2023-05-19T06:06:12;11.63;;;10.45;;
11677;SDS011;5895;41.950;24.372;2023-05-19T06:08:39;14.48;;;11.90;;
11677;SDS011;5895;41.950;24.372;2023-05-19T06:11:06;16.98;;;14.07;;
11677;SDS011;5895;41.950;24.372;2023-05-19T06:13:34;12.25;;;10.98;;
11677;SDS011;5895;41.950;24.372;2023-05-19T06:16:01;12.30;;;10.05;;
11677;SDS011;5895;41.950;24.372;2023-05-19T06:18:30;13.93;;;10.02;;
11677;SDS011;5895;41.950;24.372;2023-05-19T06:20:57;10.25;;;8.93;;
11677;SDS011;5895;41.950;24.372;2023-05-19T06:23:24;11.13;;;9.95;;
11677;SDS011;5895;41.950;24.372;2023-05-19T06:25:53;10.57;;;9.57;;
11677;SDS011;5895;41.950;24.372;2023-05-19T06:28:20;11.90;;;10.45;;
11677;SDS011;5895;41.950;24.372;2023-05-19T06:30:47;15.30;;;10.27;;
11677;SDS011;5895;41.950;24.372;2023-05-19T06:33:14;11.32;;;9.95;;
11677;SDS011;5895;41.950;24.372;2023-05-19T06:35:43;14.45;;;10.15;;
11677;SDS011;5895;41.950;24.372;2023-05-19T06:38:10;10.13;;;9.00;;
11677;SDS011;5895;41.950;24.372;2023-05-19T06:40:37;9.35;;;8.45;;
11677;SDS011;5895;41.950;24.372;2023-05-19T06:43:04;8.75;;;7.95;;
11677;SDS011;5895;41.950;24.372;2023-05-19T06:45:31;8.90;;;7.88;;
11677;SDS011;5895;41.950;24.372;2023-05-19T06:47:58;9.20;;;8.32;;
11677;SDS011;5895;41.950;24.372;2023-05-19T06:50:26;8.25;;;7.22;;
11677;SDS011;5895;41.950;24.372;2023-05-19T06:52:54;9.98;;;7.97;;
11677;SDS011;5895;41.950;24.372;2023-05-19T06:55:22;9.23;;;8.27;;
11677;SDS011;5895;41.950;24.372;2023-05-19T06:57:50;11.27;;;8.93;;
11677;SDS011;5895;41.950;24.372;2023-05-19T07:00:17;17.42;;;11.63;;
11677;SDS011;5895;41.950;24.372;2023-05-19T07:02:44;11.40;;;8.77;;
11677;SDS011;5895;41.950;24.372;2023-05-19T07:05:11;12.73;;;8.75;;
11677;SDS011;5895;41.950;24.372;2023-05-19T07:07:38;10.65;;;8.23;;
11677;SDS011;5895;41.950;24.372;2023-05-19T07:10:08;9.77;;;7.93;;
11677;SDS011;5895;41.950;24.372;2023-05-19T07:12:35;9.23;;;7.95;;
11677;SDS011;5895;41.950;24.372;2023-05-19T07:15:02;9.75;;;8.75;;
11677;SDS011;5895;41.950;24.372;2023-05-19T07:17:30;9.88;;;8.02;;
11677;SDS011;5895;41.950;24.372;2023-05-19T07:19:57;10.27;;;8.05;;
11677;SDS011;5895;41.950;24.372;2023-05-19T07:22:25;9.32;;;8.43;;
11677;SDS011;5895;41.950;24.372;2023-05-19T07:24:52;10.23;;;8.55;;
11677;SDS011;5895;41.950;24.372;2023-05-19T07:27:22;11.85;;;8.80;;
11677;SDS011;5895;41.950;24.372;2023-05-19T07:29:49;9.07;;;8.18;;
11677;SDS011;5895;41.950;24.372;2023-05-19T07:32:16;10.85;;;8.52;;
11677;SDS011;5895;41.950;24.372;2023-05-19T07:34:43;9.45;;;8.60;;
11677;SDS011;5895;41.950;24.372;2023-05-19T07:37:10;10.93;;;9.82;;
11677;SDS011;5895;41.950;24.372;2023-05-19T07:39:37;10.05;;;9.05;;
11677;SDS011;5895;41.950;24.372;2023-05-19T07:42:04;9.15;;;8.25;;
11677;SDS011;5895;41.950;24.372;2023-05-19T07:44:33;9.77;;;8.82;;
11677;SDS011;5895;41.950;24.372;2023-05-19T07:47:00;11.75;;;8.93;;
11677;SDS011;5895;41.950;24.372;2023-05-19T07:49:27;9.88;;;8.88;;
11677;SDS011;5895;41.950;24.372;2023-05-19T07:51:54;12.23;;;8.93;;
11677;SDS011;5895;41.950;24.372;2023-05-19T07:54:22;9.55;;;8.55;;
11677;SDS011;5895;41.950;24.372;2023-05-19T07:56:49;11.98;;;8.85;;
11677;SDS011;5895;41.950;24.372;2023-05-19T07:59:16;9.30;;;7.85;;
11677;SDS011;5895;41.950;24.372;2023-05-19T08:01:45;15.75;;;8.73;;
11677;SDS011;5895;41.950;24.372;2023-05-19T08:04:12;9.00;;;8.13;;
11677;SDS011;5895;41.950;24.372;2023-05-19T08:06:39;11.23;;;8.60;;
11677;SDS011;5895;41.950;24.372;2023-05-19T08:09:08;9.18;;;8.20;;
11677;SDS011;5895;41.950;24.372;2023-05-19T08:11:36;16.58;;;8.40;;
11677;SDS011;5895;41.950;24.372;2023-05-19T08:14:03;10.82;;;9.73;;
11677;SDS011;5895;41.950;24.372;2023-05-19T08:16:30;8.90;;;8.10;;
11677;SDS011;5895;41.950;24.372;2023-05-19T08:18:58;11.02;;;9.10;;
11677;SDS011;5895;41.950;24.372;2023-05-19T08:21:28;11.18;;;8.93;;
11677;SDS011;5895;41.950;24.372;2023-05-19T08:23:55;10.55;;;9.23;;
11677;SDS011;5895;41.950;24.372;2023-05-19T08:26:22;8.93;;;8.02;;
11677;SDS011;5895;41.950;24.372;2023-05-19T08:28:50;15.32;;;8.95;;
11677;SDS011;5895;41.950;24.372;2023-05-19T08:31:17;10.30;;;8.70;;
11677;SDS011;5895;41.950;24.372;2023-05-19T08:33:44;11.35;;;9.57;;
11677;SDS011;5895;41.950;24.372;2023-05-19T08:36:13;15.07;;;9.23;;
11677;SDS011;5895;41.950;24.372;2023-05-19T08:38:40;11.95;;;9.25;;
11677;SDS011;5895;41.950;24.372;2023-05-19T08:41:07;11.27;;;8.45;;
11677;SDS011;5895;41.950;24.372;2023-05-19T08:43:34;13.30;;;9.13;;
11677;SDS011;5895;41.950;24.372;2023-05-19T08:46:03;11.10;;;9.70;;
11677;SDS011;5895;41.950;24.372;2023-05-19T08:48:32;12.30;;;9.38;;
11677;SDS011;5895;41.950;24.372;2023-05-19T08:51:05;11.18;;;10.02;;
11677;SDS011;5895;41.950;24.372;2023-05-19T08:53:41;11.20;;;10.05;;
11677;SDS011;5895;41.950;24.372;2023-05-19T08:56:15;13.80;;;11.30;;
11677;SDS011;5895;41.950;24.372;2023-05-19T08:58:46;19.50;;;9.63;;
11677;SDS011;5895;41.950;24.372;2023-05-19T09:01:15;10.45;;;9.45;;
11677;SDS011;5895;41.950;24.372;2023-05-19T09:03:42;12.07;;;9.80;;
11677;SDS011;5895;41.950;24.372;2023-05-19T09:06:10;11.70;;;9.15;;
11677;SDS011;5895;41.950;24.372;2023-05-19T09:08:38;12.13;;;9.90;;
11677;SDS011;5895;41.950;24.372;2023-05-19T09:11:07;10.70;;;9.40;;
11677;SDS011;5895;41.950;24.372;2023-05-19T09:13:34;10.48;;;8.73;;
11677;SDS011;5895;41.950;24.372;2023-05-19T09:16:01;10.48;;;9.30;;
11677;SDS011;5895;41.950;24.372;2023-05-19T09:18:29;12.05;;;10.68;;
11677;SDS011;5895;41.950;24.372;2023-05-19T09:20:56;12.95;;;9.00;;
11677;SDS011;5895;41.950;24.372;2023-05-19T09:23:26;10.93;;;9.73;;
11677;SDS011;5895;41.950;24.372;2023-05-19T09:25:54;12.63;;;9.20;;
11677;SDS011;5895;41.950;24.372;2023-05-19T09:28:24;11.48;;;9.45;;
11677;SDS011;5895;41.950;24.372;2023-05-19T09:31:01;13.77;;;9.02;;
11677;SDS011;5895;41.950;24.372;2023-05-19T09:33:29;11.07;;;9.93;;
11677;SDS011;5895;41.950;24.372;2023-05-19T09:35:59;11.45;;;8.48;;
11677;SDS011;5895;41.950;24.372;2023-05-19T09:38:27;10.70;;;9.10;;
11677;SDS011;5895;41.950;24.372;2023-05-19T09:40:55;12.80;;;9.15;;
11677;SDS011;5895;41.950;24.372;2023-05-19T09:43:24;10.70;;;9.65;;
11677;SDS011;5895;41.950;24.372;2023-05-19T09:45:54;12.70;;;9.23;;
11677;SDS011;5895;41.950;24.372;2023-05-19T09:48:24;10.70;;;9.55;;
11677;SDS011;5895;41.950;24.372;2023-05-19T09:50:52;10.85;;;9.18;;
11677;SDS011;5895;41.950;24.372;2023-05-19T09:53:20;15.43;;;10.07;;
11677;SDS011;5895;41.950;24.372;2023-05-19T09:55:48;15.57;;;9.43;;
11677;SDS011;5895;41.950;24.372;2023-05-19T09:58:17;10.52;;;9.45;;
11677;SDS011;5895;41.950;24.372;2023-05-19T10:00:46;12.60;;;9.63;;
11677;SDS011;5895;41.950;24.372;2023-05-19T10:03:13;14.90;;;9.65;;
11677;SDS011;5895;41.950;24.372;2023-05-19T10:05:43;12.05;;;9.20;;
11677;SDS011;5895;41.950;24.372;2023-05-19T10:08:10;11.25;;;9.52;;
11677;SDS011;5895;41.950;24.372;2023-05-19T10:10:39;11.95;;;10.05;;
11677;SDS011;5895;41.950;24.372;2023-05-19T10:13:07;11.57;;;10.43;;
11677;SDS011;5895;41.950;24.372;2023-05-19T10:15:35;17.33;;;9.68;;
11677;SDS011;5895;41.950;24.372;2023-05-19T10:18:04;16.02;;;13.63;;
11677;SDS011;5895;41.950;24.372;2023-05-19T10:20:34;11.18;;;8.95;;
11677;SDS011;5895;41.950;24.372;2023-05-19T10:23:02;11.43;;;9.27;;
11677;SDS011;5895;41.950;24.372;2023-05-19T10:25:29;12.05;;;9.82;;
11677;SDS011;5895;41.950;24.372;2023-05-19T10:27:58;13.07;;;10.00;;
11677;SDS011;5895;41.950;24.372;2023-05-19T10:30:29;10.20;;;9.20;;
11677;SDS011;5895;41.950;24.372;2023-05-19T10:33:00;15.82;;;10.27;;
11677;SDS011;5895;41.950;24.372;2023-05-19T10:35:38;15.05;;;10.75;;
11677;SDS011;5895;41.950;24.372;2023-05-19T10:38:19;12.48;;;10.77;;
11677;SDS011;5895;41.950;24.372;2023-05-19T10:40:56;12.85;;;8.93;;
11677;SDS011;5895;41.950;24.372;2023-05-19T10:43:32;11.73;;;9.25;;
11677;SDS011;5895;41.950;24.372;2023-05-19T10:46:10;11.52;;;10.13;;
11677;SDS011;5895;41.950;24.372;2023-05-19T10:48:37;10.80;;;9.60;;
11677;SDS011;5895;41.950;24.372;2023-05-19T10:51:11;12.32;;;10.35;;
11677;SDS011;5895;41.950;24.372;2023-05-19T10:53:41;10.43;;;9.30;;
11677;SDS011;5895;41.950;24.372;2023-05-19T10:56:26;11.85;;;9.93;;
11677;SDS011;5895;41.950;24.372;2023-05-19T10:58:58;13.25;;;9.90;;
11677;SDS011;5895;41.950;24.372;2023-05-19T11:01:30;14.75;;;12.20;;
11677;SDS011;5895;41.950;24.372;2023-05-19T11:04:03;11.20;;;9.35;;
11677;SDS011;5895;41.950;24.372;2023-05-19T11:06:33;10.10;;;9.05;;
11677;SDS011;5895;41.950;24.372;2023-05-19T11:09:08;12.90;;;9.88;;
11677;SDS011;5895;41.950;24.372;2023-05-19T11:11:44;10.40;;;9.20;;
11677;SDS011;5895;41.950;24.372;2023-05-19T11:14:13;12.57;;;8.73;;
11677;SDS011;5895;41.950;24.372;2023-05-19T11:16:44;11.40;;;9.80;;
11677;SDS011;5895;41.950;24.372;2023-05-19T11:19:16;11.98;;;10.77;;
11677;SDS011;5895;41.950;24.372;2023-05-19T11:21:50;10.30;;;9.30;;
11677;SDS011;5895;41.950;24.372;2023-05-19T11:24:34;12.07;;;9.38;;
11677;SDS011;5895;41.950;24.372;2023-05-19T11:27:17;13.40;;;9.02;;
11677;SDS011;5895;41.950;24.372;2023-05-19T11:29:46;10.23;;;9.23;;
11677;SDS011;5895;41.950;24.372;2023-05-19T11:32:14;11.68;;;8.95;;
11677;SDS011;5895;41.950;24.372;2023-05-19T11:34:42;11.55;;;10.38;;
11677;SDS011;5895;41.950;24.372;2023-05-19T11:37:11;10.63;;;9.05;;
11677;SDS011;5895;41.950;24.372;2023-05-19T11:39:38;12.68;;;9.10;;
11677;SDS011;5895;41.950;24.372;2023-05-19T11:42:07;11.05;;;8.98;;
11677;SDS011;5895;41.950;24.372;2023-05-19T11:44:35;10.63;;;8.77;;
11677;SDS011;5895;41.950;24.372;2023-05-19T11:47:05;9.90;;;8.35;;
11677;SDS011;5895;41.950;24.372;2023-05-19T11:49:32;9.45;;;8.27;;
11677;SDS011;5895;41.950;24.372;2023-05-19T11:52:00;12.80;;;9.25;;
11677;SDS011;5895;41.950;24.372;2023-05-19T11:54:31;10.98;;;9.45;;
11677;SDS011;5895;41.950;24.372;2023-05-19T11:57:00;12.13;;;8.73;;
11677;SDS011;5895;41.950;24.372;2023-05-19T11:59:29;11.13;;;9.98;;
11677;SDS011;5895;41.950;24.372;2023-05-19T12:01:59;13.90;;;11.10;;
11677;SDS011;5895;41.950;24.372;2023-05-19T12:04:28;11.27;;;9.50;;
11677;SDS011;5895;41.950;24.372;2023-05-19T12:06:56;11.82;;;10.05;;
11677;SDS011;5895;41.950;24.372;2023-05-19T12:09:23;10.18;;;9.20;;
11677;SDS011;5895;41.950;24.372;2023-05-19T12:11:51;10.88;;;8.15;;
11677;SDS011;5895;41.950;24.372;2023-05-19T12:14:20;11.50;;;8.02;;
11677;SDS011;5895;41.950;24.372;2023-05-19T12:16:47;9.07;;;8.18;;
11677;SDS011;5895;41.950;24.372;2023-05-19T12:19:14;6.63;;;5.70;;
11677;SDS011;5895;41.950;24.372;2023-05-19T12:21:42;9.52;;;6.40;;
11677;SDS011;5895;41.950;24.372;2023-05-19T12:24:09;7.70;;;4.95;;
11677;SDS011;5895;41.950;24.372;2023-05-19T12:26:37;6.45;;;5.65;;
11677;SDS011;5895;41.950;24.372;2023-05-19T12:29:05;9.85;;;5.97;;
11677;SDS011;5895;41.950;24.372;2023-05-19T12:31:33;7.18;;;6.47;;
11677;SDS011;5895;41.950;24.372;2023-05-19T12:34:00;6.78;;;5.18;;
11677;SDS011;5895;41.950;24.372;2023-05-19T12:36:27;6.60;;;5.30;;
11677;SDS011;5895;41.950;24.372;2023-05-19T12:38:55;8.18;;;7.43;;
11677;SDS011;5895;41.950;24.372;2023-05-19T12:41:23;8.38;;;7.50;;
11677;SDS011;5895;41.950;24.372;2023-05-19T12:43:52;7.05;;;6.35;;
11677;SDS011;5895;41.950;24.372;2023-05-19T12:46:21;6.30;;;5.45;;
11677;SDS011;5895;41.950;24.372;2023-05-19T12:48:48;6.25;;;5.65;;
11677;SDS011;5895;41.950;24.372;2023-05-19T12:51:16;5.78;;;4.95;;
11677;SDS011;5895;41.950;24.372;2023-05-19T12:53:44;5.45;;;4.95;;
11677;SDS011;5895;41.950;24.372;2023-05-19T12:56:11;5.20;;;4.70;;
11677;SDS011;5895;41.950;24.372;2023-05-19T12:58:39;6.22;;;5.28;;
11677;SDS011;5895;41.950;24.372;2023-05-19T13:01:11;6.80;;;5.57;;
11677;SDS011;5895;41.950;24.372;2023-05-19T13:03:43;7.10;;;5.85;;
11677;SDS011;5895;41.950;24.372;2023-05-19T13:06:10;8.75;;;6.82;;
11677;SDS011;5895;41.950;24.372;2023-05-19T13:08:37;7.65;;;6.85;;
11677;SDS011;5895;41.950;24.372;2023-05-19T13:11:05;8.93;;;7.95;;
11677;SDS011;5895;41.950;24.372;2023-05-19T13:13:32;7.25;;;5.95;;
11677;SDS011;5895;41.950;24.372;2023-05-19T13:15:59;6.45;;;5.70;;
11677;SDS011;5895;41.950;24.372;2023-05-19T13:18:26;8.45;;;7.65;;
11677;SDS011;5895;41.950;24.372;2023-05-19T13:20:57;10.27;;;8.02;;
11677;SDS011;5895;41.950;24.372;2023-05-19T13:23:24;10.98;;;9.05;;
11677;SDS011;5895;41.950;24.372;2023-05-19T13:25:51;10.50;;;8.20;;
11677;SDS011;5895;41.950;24.372;2023-05-19T13:28:18;10.02;;;8.40;;
11677;SDS011;5895;41.950;24.372;2023-05-19T13:30:46;9.60;;;8.43;;
11677;SDS011;5895;41.950;24.372;2023-05-19T13:33:13;8.45;;;7.65;;
11677;SDS011;5895;41.950;24.372;2023-05-19T13:35:41;10.00;;;6.88;;
11677;SDS011;5895;41.950;24.372;2023-05-19T13:38:09;8.23;;;6.68;;
11677;SDS011;5895;41.950;24.372;2023-05-19T13:40:36;7.95;;;6.82;;
11677;SDS011;5895;41.950;24.372;2023-05-19T13:43:03;8.80;;;6.65;;
11677;SDS011;5895;41.950;24.372;2023-05-19T13:45:31;9.23;;;6.82;;
11677;SDS011;5895;41.950;24.372;2023-05-19T13:47:59;9.40;;;7.20;;
11677;SDS011;5895;41.950;24.372;2023-05-19T13:50:26;10.65;;;7.22;;
11677;SDS011;5895;41.950;24.372;2023-05-19T13:52:54;8.30;;;7.40;;
11677;SDS011;5895;41.950;24.372;2023-05-19T13:55:22;11.32;;;7.68;;
11677;SDS011;5895;41.950;24.372;2023-05-19T13:57:51;8.80;;;7.88;;
11677;SDS011;5895;41.950;24.372;2023-05-19T14:00:18;9.73;;;8.70;;
11677;SDS011;5895;41.950;24.372;2023-05-19T14:02:45;11.88;;;8.50;;
11677;SDS011;5895;41.950;24.372;2023-05-19T14:05:12;9.90;;;8.90;;
11677;SDS011;5895;41.950;24.372;2023-05-19T14:07:40;11.38;;;9.25;;
11677;SDS011;5895;41.950;24.372;2023-05-19T14:10:07;13.60;;;11.88;;
11677;SDS011;5895;41.950;24.372;2023-05-19T14:12:36;10.68;;;8.82;;
11677;SDS011;5895;41.950;24.372;2023-05-19T14:15:04;11.05;;;9.93;;
11677;SDS011;5895;41.950;24.372;2023-05-19T14:17:32;11.73;;;8.52;;
11677;SDS011;5895;41.950;24.372;2023-05-19T14:19:59;10.35;;;9.13;;
11677;SDS011;5895;41.950;24.372;2023-05-19T14:22:26;11.57;;;10.32;;
11677;SDS011;5895;41.950;24.372;2023-05-19T14:24:53;11.07;;;9.60;;
11677;SDS011;5895;41.950;24.372;2023-05-19T14:27:20;9.95;;;8.90;;
11677;SDS011;5895;41.950;24.372;2023-05-19T14:29:49;16.88;;;10.82;;
11677;SDS011;5895;41.950;24.372;2023-05-19T14:32:16;10.57;;;9.48;;
11677;SDS011;5895;41.950;24.372;2023-05-19T14:34:43;11.60;;;9.25;;
11677;SDS011;5895;41.950;24.372;2023-05-19T14:37:11;12.13;;;9.07;;
11677;SDS011;5895;41.950;24.372;2023-05-19T14:39:46;12.10;;;10.20;;
11677;SDS011;5895;41.950;24.372;2023-05-19T14:42:13;10.88;;;8.90;;
11677;SDS011;5895;41.950;24.372;2023-05-19T14:44:40;13.50;;;8.60;;
11677;SDS011;5895;41.950;24.372;2023-05-19T14:47:09;12.63;;;9.80;;
11677;SDS011;5895;41.950;24.372;2023-05-19T14:49:36;14.05;;;10.43;;
11677;SDS011;5895;41.950;24.372;2023-05-19T14:52:03;11.65;;;8.07;;
11677;SDS011;5895;41.950;24.372;2023-05-19T14:54:31;10.05;;;8.57;;